»·PEaware :: N333JS KSAN-KBFL

N333JS :: KSAN-KBFL

FLIGHT INFORMATION

Flight Status: Arrived
Operator: Privately registered:
United States
More flights under this callsign
Pilot: Johnny M. (21174)
Aircraft: BEECH AIRCRAFT SUPER KING AIR 350
(B350)
More flights by this aircraft type
Origin: KSAN San Diego Intl-Lindbergh
United States
Destination: KBFL Meadows
United States
More flights between these airports :: More routes between these airports
Route: +PADRZ2 OROSZ GMN FASTO2
File this flight plan on PilotEdge
Remarks: RMK / SIMBRIEF
Altitude:
(Current/Filed)
28,000ft
Speed:
(Current/Filed)
332kts
Departed: 22-May-20 06:22 PM
Arrived: 22-May-20 07:19 PM
Distance/Time
Traveled:
186nm/0:57
Distance/Time
To Go:
Arrived

Flight Plot

Page will automatically refresh every two minutes.


Map Options




Map Legend


Flown Route
Filed Route
Departure Airport
Arrival Airport
Navaid (VOR, NDB)
Fix

Horizontal Profiles

Position Reports

Time Latitude Longitude Heading Altitude Ground
Speed
22-May-20 18:00 32.730634 -117.190994 298 22ft 0kts
22-May-20 18:01 32.730634 -117.190994 298 22ft 0kts
22-May-20 18:02 32.730634 -117.190994 298 22ft 0kts
22-May-20 18:03 32.730634 -117.190994 298 22ft 0kts
22-May-20 18:04 32.730634 -117.190994 298 22ft 0kts
22-May-20 18:05 32.730634 -117.190994 298 22ft 0kts
22-May-20 18:06 32.730634 -117.190994 298 22ft 0kts
22-May-20 18:07 32.730634 -117.190994 298 22ft 0kts
22-May-20 18:08 32.730635 -117.190994 298 22ft 0kts
22-May-20 18:09 32.730635 -117.190994 298 22ft 0kts
22-May-20 18:10 32.730635 -117.190994 298 22ft 0kts
22-May-20 18:11 32.730635 -117.190994 298 22ft 0kts
22-May-20 18:12 32.730635 -117.190994 298 22ft 0kts
22-May-20 18:13 32.730635 -117.190994 298 22ft 0kts
22-May-20 18:14 32.730635 -117.190994 298 22ft 0kts
22-May-20 18:15 32.730635 -117.190994 298 22ft 0kts
22-May-20 18:16 32.732551 -117.190434 35 22ft 8kts
22-May-20 18:17 32.731422 -117.185113 104 22ft 23kts
22-May-20 18:18 32.729682 -117.178017 107 22ft 19kts
22-May-20 18:19 32.729510 -117.176705 70 22ft 0kts
22-May-20 18:20 32.730249 -117.175993 290 22ft 3kts
22-May-20 18:21 32.735701 -117.198910 282 419ft 140kts
22-May-20 18:22 32.759320 -117.245283 300 2205ft 175kts
22-May-20 18:23 32.784220 -117.290759 300 4175ft 171kts
22-May-20 18:24 32.811097 -117.336151 305 5846ft 177kts
22-May-20 18:25 32.840864 -117.382364 305 7502ft 179kts
22-May-20 18:26 32.871138 -117.429334 305 9317ft 180kts
22-May-20 18:27 32.900930 -117.475607 304 11058ft 175kts
22-May-20 18:28 32.930073 -117.520943 303 12607ft 172kts
22-May-20 18:29 32.958759 -117.565639 303 14370ft 172kts
22-May-20 18:30 32.987371 -117.610285 303 16046ft 172kts
22-May-20 18:31 33.015920 -117.654886 302 17733ft 171kts
22-May-20 18:32 33.044459 -117.699530 302 19471ft 171kts
22-May-20 18:33 33.076047 -117.741581 312 21224ft 175kts
22-May-20 18:34 33.110499 -117.776999 313 22873ft 176kts
22-May-20 18:35 33.147811 -117.815032 313 24675ft 176kts
22-May-20 18:36 33.184248 -117.852159 313 26237ft 177kts
22-May-20 18:37 33.222118 -117.889484 314 27627ft 179kts
22-May-20 18:38 33.264441 -117.930813 315 27996ft 219kts
22-May-20 18:39 33.314588 -117.979743 316 27987ft 249kts
22-May-20 18:40 33.369920 -118.033838 316 27966ft 264kts
22-May-20 18:41 33.427955 -118.090701 316 27952ft 273kts
22-May-20 18:42 33.486969 -118.148638 316 27954ft 277kts
22-May-20 18:43 33.546769 -118.207454 316 27962ft 280kts
22-May-20 18:44 33.612112 -118.255976 330 27964ft 287kts
22-May-20 18:45 33.684053 -118.295693 330 27964ft 288kts
22-May-20 18:46 33.756576 -118.335729 331 27954ft 289kts
22-May-20 18:47 33.829704 -118.372674 332 27951ft 290kts
22-May-20 18:48 33.899876 -118.408104 332 27950ft 290kts
22-May-20 18:49 33.967680 -118.442397 332 27945ft 291kts
22-May-20 18:50 34.042689 -118.480425 332 27934ft 291kts
22-May-20 18:51 34.116991 -118.518179 332 27948ft 290kts
22-May-20 18:52 34.190767 -118.555731 332 27230ft 286kts
22-May-20 18:53 34.262475 -118.592311 332 26154ft 278kts
22-May-20 18:54 34.332379 -118.627595 333 24971ft 270kts
22-May-20 18:55 34.398097 -118.660001 332 23782ft 261kts
22-May-20 18:56 34.464714 -118.692890 332 22168ft 256kts
22-May-20 18:57 34.529667 -118.725016 331 20583ft 251kts
22-May-20 18:58 34.593489 -118.756636 331 18993ft 246kts
22-May-20 18:59 34.656296 -118.787822 331 17402ft 243kts
22-May-20 19:00 34.718305 -118.818624 331 15808ft 239kts
22-May-20 19:01 34.779536 -118.849124 332 14212ft 236kts
22-May-20 19:02 34.844481 -118.861274 353 12623ft 243kts
22-May-20 19:03 34.911727 -118.861349 354 11031ft 241kts
22-May-20 19:04 34.978530 -118.861340 355 9531ft 236kts
22-May-20 19:05 35.041517 -118.862243 353 8388ft 218kts
22-May-20 19:06 35.100575 -118.867080 352 7255ft 209kts
22-May-20 19:07 35.156317 -118.871733 352 6076ft 203kts
22-May-20 19:08 35.212231 -118.876386 352 4779ft 202kts
22-May-20 19:09 35.268136 -118.865630 7 3311ft 204kts
22-May-20 19:10 35.318644 -118.864327 305 2468ft 161kts
22-May-20 19:11 35.314953 -118.901717 289 2145ft 107kts
22-May-20 19:12 35.330369 -118.929692 306 1364ft 100kts
22-May-20 19:13 35.346848 -118.956195 312 1332ft 97kts
22-May-20 19:14 35.366746 -118.975547 321 2412ft 109kts
22-May-20 19:15 35.388387 -119.001323 318 1788ft 112kts
22-May-20 19:16 35.409198 -119.026418 318 1133ft 93kts
22-May-20 19:18 35.427293 -119.048261 317 675ft 91kts
22-May-20 19:19 35.438259 -119.059534 97 511ft 0kts
22-May-20 19:20 35.438259 -119.059531 97 511ft 0kts
22-May-20 19:21 35.435491 -119.055959 135 511ft 25kts
22-May-20 19:22 35.431197 -119.050565 92 511ft 10kts
22-May-20 19:23 35.431004 -119.048181 132 511ft 0kts
22-May-20 19:24 35.431004 -119.048181 132 511ft 0kts
22-May-20 19:25 35.431004 -119.048181 132 511ft 0kts
22-May-20 19:26 35.431004 -119.048181 132 511ft 0kts
22-May-20 19:27 35.431004 -119.048181 132 511ft 0kts
22-May-20 19:28 35.431004 -119.048181 132 511ft 0kts
22-May-20 19:29 35.431004 -119.048181 132 511ft 0kts
22-May-20 19:30 35.431004 -119.048181 132 511ft 0kts
22-May-20 19:31 35.431004 -119.048181 132 511ft 0kts
22-May-20 19:32 35.431004 -119.048181 132 511ft 0kts
22-May-20 19:33 35.431004 -119.048181 132 511ft 0kts

Navigation Log

Ident Type
Flight plan parsing failed, navigation log unavailable